sensor_id;sensor_type;location;lat;lon;timestamp;pressure;altitude;pressure_sealevel;temperature;humidity
13594;BME280;6449;47.666;9.160;2022-08-19T00:09:45;96674.75;;;18.88;100.00
13594;BME280;6449;47.666;9.160;2022-08-19T00:14:39;96679.56;;;18.93;100.00
13594;BME280;6449;47.666;9.160;2022-08-19T00:19:33;96672.22;;;18.95;100.00
13594;BME280;6449;47.666;9.160;2022-08-19T00:24:27;96658.94;;;18.95;100.00
13594;BME280;6449;47.666;9.160;2022-08-19T00:29:24;96662.63;;;18.94;100.00
13594;BME280;6449;47.666;9.160;2022-08-19T00:34:17;96673.25;;;18.94;100.00
13594;BME280;6449;47.666;9.160;2022-08-19T00:39:13;96661.97;;;18.92;100.00
13594;BME280;6449;47.666;9.160;2022-08-19T00:44:14;96664.75;;;18.98;100.00
13594;BME280;6449;47.666;9.160;2022-08-19T00:49:15;96661.59;;;18.95;100.00
13594;BME280;6449;47.666;9.160;2022-08-19T00:54:09;96672.09;;;18.88;100.00
13594;BME280;6449;47.666;9.160;2022-08-19T00:59:05;96667.31;;;18.83;100.00
13594;BME280;6449;47.666;9.160;2022-08-19T01:04:01;96670.97;;;18.82;100.00
13594;BME280;6449;47.666;9.160;2022-08-19T01:08:56;96672.97;;;18.80;100.00
13594;BME280;6449;47.666;9.160;2022-08-19T01:13:52;96664.72;;;18.75;100.00
13594;BME280;6449;47.666;9.160;2022-08-19T01:18:46;96660.69;;;18.79;100.00
13594;BME280;6449;47.666;9.160;2022-08-19T01:23:42;96649.09;;;18.80;100.00
13594;BME280;6449;47.666;9.160;2022-08-19T01:28:37;96645.56;;;18.80;100.00
13594;BME280;6449;47.666;9.160;2022-08-19T01:33:33;96650.22;;;18.86;100.00
13594;BME280;6449;47.666;9.160;2022-08-19T01:38:27;96653.19;;;18.83;100.00
13594;BME280;6449;47.666;9.160;2022-08-19T01:43:24;96659.84;;;18.79;100.00
13594;BME280;6449;47.666;9.160;2022-08-19T01:48:18;96655.84;;;18.83;100.00
13594;BME280;6449;47.666;9.160;2022-08-19T01:53:12;96652.03;;;18.86;100.00
13594;BME280;6449;47.666;9.160;2022-08-19T01:58:08;96638.41;;;18.89;100.00
13594;BME280;6449;47.666;9.160;2022-08-19T02:03:07;96623.16;;;18.82;100.00
13594;BME280;6449;47.666;9.160;2022-08-19T02:08:01;96623.50;;;18.79;100.00
13594;BME280;6449;47.666;9.160;2022-08-19T02:12:54;96623.03;;;18.76;100.00
13594;BME280;6449;47.666;9.160;2022-08-19T02:17:48;96622.66;;;18.79;100.00
13594;BME280;6449;47.666;9.160;2022-08-19T02:22:43;96625.50;;;18.77;100.00
13594;BME280;6449;47.666;9.160;2022-08-19T02:27:37;96632.13;;;18.81;100.00
13594;BME280;6449;47.666;9.160;2022-08-19T02:32:30;96633.16;;;18.80;100.00
13594;BME280;6449;47.666;9.160;2022-08-19T02:37:25;96632.13;;;18.81;100.00
13594;BME280;6449;47.666;9.160;2022-08-19T02:42:37;96635.44;;;18.83;100.00
13594;BME280;6449;47.666;9.160;2022-08-19T02:47:32;96634.44;;;18.84;100.00
13594;BME280;6449;47.666;9.160;2022-08-19T02:52:26;96640.41;;;18.87;100.00
13594;BME280;6449;47.666;9.160;2022-08-19T02:57:20;96637.91;;;18.85;100.00
13594;BME280;6449;47.666;9.160;2022-08-19T03:02:15;96635.63;;;18.82;100.00
13594;BME280;6449;47.666;9.160;2022-08-19T03:07:14;96630.78;;;18.86;100.00
13594;BME280;6449;47.666;9.160;2022-08-19T03:12:09;96628.81;;;18.79;100.00
13594;BME280;6449;47.666;9.160;2022-08-19T03:17:04;96637.09;;;18.84;100.00
13594;BME280;6449;47.666;9.160;2022-08-19T03:21:59;96629.13;;;18.84;100.00
13594;BME280;6449;47.666;9.160;2022-08-19T03:26:55;96643.59;;;18.82;100.00
13594;BME280;6449;47.666;9.160;2022-08-19T03:31:49;96637.75;;;18.87;100.00
13594;BME280;6449;47.666;9.160;2022-08-19T03:36:45;96639.75;;;18.84;100.00
13594;BME280;6449;47.666;9.160;2022-08-19T03:41:43;96655.22;;;18.81;100.00
13594;BME280;6449;47.666;9.160;2022-08-19T03:46:39;96647.41;;;18.79;100.00
13594;BME280;6449;47.666;9.160;2022-08-19T03:51:38;96634.59;;;18.83;100.00
13594;BME280;6449;47.666;9.160;2022-08-19T03:56:34;96622.53;;;18.80;100.00
13594;BME280;6449;47.666;9.160;2022-08-19T04:01:29;96615.38;;;18.81;100.00
13594;BME280;6449;47.666;9.160;2022-08-19T04:06:30;96612.88;;;18.79;100.00
13594;BME280;6449;47.666;9.160;2022-08-19T04:11:28;96607.56;;;18.79;100.00
13594;BME280;6449;47.666;9.160;2022-08-19T04:16:36;96612.75;;;18.73;100.00
13594;BME280;6449;47.666;9.160;2022-08-19T04:21:30;96598.31;;;18.75;100.00
13594;BME280;6449;47.666;9.160;2022-08-19T04:26:27;96598.91;;;18.86;100.00
13594;BME280;6449;47.666;9.160;2022-08-19T04:31:27;96616.84;;;18.83;100.00
13594;BME280;6449;47.666;9.160;2022-08-19T04:36:24;96627.13;;;18.87;100.00
13594;BME280;6449;47.666;9.160;2022-08-19T04:41:19;96630.91;;;18.92;100.00
13594;BME280;6449;47.666;9.160;2022-08-19T04:46:30;96640.88;;;18.90;100.00
13594;BME280;6449;47.666;9.160;2022-08-19T04:51:34;96641.75;;;18.82;100.00
13594;BME280;6449;47.666;9.160;2022-08-19T04:56:29;96657.88;;;18.81;100.00
13594;BME280;6449;47.666;9.160;2022-08-19T05:01:26;96657.69;;;18.82;100.00
13594;BME280;6449;47.666;9.160;2022-08-19T05:06:22;96665.31;;;18.86;100.00
13594;BME280;6449;47.666;9.160;2022-08-19T05:11:21;96674.56;;;18.90;100.00
13594;BME280;6449;47.666;9.160;2022-08-19T05:16:21;96675.94;;;18.86;100.00
13594;BME280;6449;47.666;9.160;2022-08-19T05:21:18;96679.75;;;18.83;100.00
13594;BME280;6449;47.666;9.160;2022-08-19T05:26:31;96696.22;;;18.78;100.00
13594;BME280;6449;47.666;9.160;2022-08-19T05:31:24;96705.19;;;18.77;100.00
13594;BME280;6449;47.666;9.160;2022-08-19T05:36:17;96703.53;;;18.76;100.00
13594;BME280;6449;47.666;9.160;2022-08-19T05:41:15;96709.84;;;18.67;100.00
13594;BME280;6449;47.666;9.160;2022-08-19T05:46:17;96695.09;;;18.56;100.00
13594;BME280;6449;47.666;9.160;2022-08-19T05:51:19;96703.41;;;18.53;100.00
13594;BME280;6449;47.666;9.160;2022-08-19T05:56:16;96694.97;;;18.42;100.00
13594;BME280;6449;47.666;9.160;2022-08-19T06:01:15;96686.88;;;18.35;100.00
13594;BME280;6449;47.666;9.160;2022-08-19T06:06:11;96679.25;;;18.32;100.00
13594;BME280;6449;47.666;9.160;2022-08-19T06:11:28;96669.47;;;18.32;100.00
13594;BME280;6449;47.666;9.160;2022-08-19T06:16:27;96678.06;;;18.43;100.00
13594;BME280;6449;47.666;9.160;2022-08-19T06:21:24;96689.03;;;18.40;100.00
13594;BME280;6449;47.666;9.160;2022-08-19T06:26:20;96695.34;;;18.39;100.00
13594;BME280;6449;47.666;9.160;2022-08-19T06:31:15;96691.19;;;18.36;100.00
13594;BME280;6449;47.666;9.160;2022-08-19T06:36:19;96686.00;;;18.43;100.00
13594;BME280;6449;47.666;9.160;2022-08-19T06:41:17;96680.69;;;18.43;100.00
13594;BME280;6449;47.666;9.160;2022-08-19T06:46:13;96682.88;;;18.39;100.00
13594;BME280;6449;47.666;9.160;2022-08-19T06:51:07;96683.84;;;18.46;100.00
13594;BME280;6449;47.666;9.160;2022-08-19T06:56:02;96683.66;;;18.56;100.00
13594;BME280;6449;47.666;9.160;2022-08-19T07:00:55;96685.09;;;18.75;100.00
13594;BME280;6449;47.666;9.160;2022-08-19T07:05:49;96687.94;;;18.65;100.00
13594;BME280;6449;47.666;9.160;2022-08-19T07:10:44;96679.66;;;18.68;100.00
13594;BME280;6449;47.666;9.160;2022-08-19T07:15:39;96687.63;;;18.60;100.00
13594;BME280;6449;47.666;9.160;2022-08-19T07:20:33;96700.22;;;18.66;100.00
13594;BME280;6449;47.666;9.160;2022-08-19T07:25:27;96700.56;;;18.71;100.00
13594;BME280;6449;47.666;9.160;2022-08-19T07:30:24;96705.88;;;18.63;100.00
13594;BME280;6449;47.666;9.160;2022-08-19T07:35:19;96708.38;;;18.56;100.00
13594;BME280;6449;47.666;9.160;2022-08-19T07:40:13;96708.69;;;18.62;100.00
13594;BME280;6449;47.666;9.160;2022-08-19T07:45:08;96710.53;;;18.61;100.00
13594;BME280;6449;47.666;9.160;2022-08-19T07:50:02;96709.53;;;18.62;100.00
13594;BME280;6449;47.666;9.160;2022-08-19T07:55:00;96711.19;;;18.63;100.00
13594;BME280;6449;47.666;9.160;2022-08-19T07:59:55;96722.53;;;18.49;100.00
13594;BME280;6449;47.666;9.160;2022-08-19T08:04:49;96718.88;;;18.50;100.00
13594;BME280;6449;47.666;9.160;2022-08-19T08:10:01;96721.47;;;18.58;100.00
13594;BME280;6449;47.666;9.160;2022-08-19T08:14:58;96725.50;;;18.54;100.00
13594;BME280;6449;47.666;9.160;2022-08-19T08:19:53;96728.66;;;18.49;100.00
13594;BME280;6449;47.666;9.160;2022-08-19T08:24:46;96736.13;;;18.46;100.00
13594;BME280;6449;47.666;9.160;2022-08-19T08:29:42;96733.47;;;18.46;100.00
13594;BME280;6449;47.666;9.160;2022-08-19T08:34:36;96735.59;;;18.58;100.00
13594;BME280;6449;47.666;9.160;2022-08-19T08:39:30;96745.41;;;18.50;100.00
13594;BME280;6449;47.666;9.160;2022-08-19T08:44:34;96750.75;;;18.33;100.00
13594;BME280;6449;47.666;9.160;2022-08-19T08:49:45;96755.91;;;18.27;100.00
13594;BME280;6449;47.666;9.160;2022-08-19T08:54:45;96751.91;;;18.31;100.00
13594;BME280;6449;47.666;9.160;2022-08-19T08:59:48;96755.75;;;18.28;100.00
13594;BME280;6449;47.666;9.160;2022-08-19T09:04:46;96765.03;;;18.32;100.00
13594;BME280;6449;47.666;9.160;2022-08-19T09:09:43;96767.31;;;18.36;100.00
13594;BME280;6449;47.666;9.160;2022-08-19T09:14:48;96772.31;;;18.30;100.00
13594;BME280;6449;47.666;9.160;2022-08-19T09:19:55;96776.28;;;18.26;100.00
13594;BME280;6449;47.666;9.160;2022-08-19T09:24:49;96775.13;;;18.21;100.00
13594;BME280;6449;47.666;9.160;2022-08-19T09:29:47;96769.34;;;18.09;100.00
13594;BME280;6449;47.666;9.160;2022-08-19T09:34:44;96780.94;;;18.16;100.00
13594;BME280;6449;47.666;9.160;2022-08-19T09:39:43;96779.28;;;18.15;100.00
13594;BME280;6449;47.666;9.160;2022-08-19T09:44:37;96780.94;;;18.16;100.00
13594;BME280;6449;47.666;9.160;2022-08-19T09:49:31;96784.59;;;18.15;100.00
13594;BME280;6449;47.666;9.160;2022-08-19T09:54:25;96786.59;;;18.13;100.00
13594;BME280;6449;47.666;9.160;2022-08-19T09:59:20;96791.22;;;18.03;100.00
13594;BME280;6449;47.666;9.160;2022-08-19T10:04:14;96791.91;;;17.97;100.00
13594;BME280;6449;47.666;9.160;2022-08-19T10:09:16;96791.06;;;18.04;100.00
13594;BME280;6449;47.666;9.160;2022-08-19T10:14:26;96798.69;;;17.99;100.00
13594;BME280;6449;47.666;9.160;2022-08-19T10:19:19;96804.66;;;17.93;100.00
13594;BME280;6449;47.666;9.160;2022-08-19T10:24:16;96805.13;;;17.89;100.00
13594;BME280;6449;47.666;9.160;2022-08-19T10:29:10;96803.47;;;17.88;100.00
13594;BME280;6449;47.666;9.160;2022-08-19T10:34:28;96808.09;;;17.77;100.00
13594;BME280;6449;47.666;9.160;2022-08-19T10:39:21;96814.25;;;17.78;100.00
13594;BME280;6449;47.666;9.160;2022-08-19T10:44:21;96827.50;;;17.78;100.00
13594;BME280;6449;47.666;9.160;2022-08-19T10:49:22;96832.81;;;17.78;100.00
13594;BME280;6449;47.666;9.160;2022-08-19T10:54:18;96827.03;;;17.99;100.00
13594;BME280;6449;47.666;9.160;2022-08-19T10:59:28;96831.69;;;17.97;100.00
13594;BME280;6449;47.666;9.160;2022-08-19T11:04:28;96826.91;;;18.00;100.00
13594;BME280;6449;47.666;9.160;2022-08-19T11:09:25;96821.91;;;18.05;100.00
13594;BME280;6449;47.666;9.160;2022-08-19T11:14:25;96825.06;;;18.01;100.00
13594;BME280;6449;47.666;9.160;2022-08-19T11:19:23;96822.22;;;18.11;100.00
13594;BME280;6449;47.666;9.160;2022-08-19T11:24:20;96822.41;;;17.93;100.00
13594;BME280;6449;47.666;9.160;2022-08-19T11:29:17;96824.91;;;18.02;100.00
13594;BME280;6449;47.666;9.160;2022-08-19T11:34:15;96819.59;;;18.02;100.00
13594;BME280;6449;47.666;9.160;2022-08-19T11:39:11;96817.59;;;17.96;100.00
13594;BME280;6449;47.666;9.160;2022-08-19T11:44:05;96802.03;;;18.01;100.00
13594;BME280;6449;47.666;9.160;2022-08-19T11:49:02;96807.63;;;17.98;100.00
13594;BME280;6449;47.666;9.160;2022-08-19T11:54:00;96812.09;;;17.82;100.00
13594;BME280;6449;47.666;9.160;2022-08-19T11:58:54;96812.75;;;17.84;100.00
13594;BME280;6449;47.666;9.160;2022-08-19T12:03:52;96808.63;;;17.89;100.00
13594;BME280;6449;47.666;9.160;2022-08-19T12:08:47;96806.31;;;17.86;100.00
13594;BME280;6449;47.666;9.160;2022-08-19T12:13:41;96801.97;;;17.77;100.00
13594;BME280;6449;47.666;9.160;2022-08-19T12:18:36;96808.44;;;17.83;100.00
13594;BME280;6449;47.666;9.160;2022-08-19T12:23:29;96810.09;;;17.75;100.00
13594;BME280;6449;47.666;9.160;2022-08-19T12:28:25;96820.72;;;17.84;100.00
13594;BME280;6449;47.666;9.160;2022-08-19T12:33:20;96818.91;;;17.92;100.00
13594;BME280;6449;47.666;9.160;2022-08-19T12:38:16;96818.41;;;17.89;100.00
13594;BME280;6449;47.666;9.160;2022-08-19T12:43:10;96821.56;;;17.92;100.00
13594;BME280;6449;47.666;9.160;2022-08-19T12:48:06;96820.75;;;17.92;100.00
13594;BME280;6449;47.666;9.160;2022-08-19T12:53:19;96825.38;;;17.90;100.00
13594;BME280;6449;47.666;9.160;2022-08-19T12:58:13;96824.06;;;17.86;100.00
13594;BME280;6449;47.666;9.160;2022-08-19T13:03:07;96829.53;;;17.92;100.00
13594;BME280;6449;47.666;9.160;2022-08-19T13:08:01;96836.81;;;17.82;100.00
13594;BME280;6449;47.666;9.160;2022-08-19T13:12:55;96840.31;;;17.91;100.00
13594;BME280;6449;47.666;9.160;2022-08-19T13:17:53;96847.78;;;17.95;100.00
13594;BME280;6449;47.666;9.160;2022-08-19T13:22:50;96850.78;;;18.00;100.00
13594;BME280;6449;47.666;9.160;2022-08-19T13:27:44;96845.78;;;18.14;100.00
13594;BME280;6449;47.666;9.160;2022-08-19T13:32:37;96848.28;;;18.07;100.00
13594;BME280;6449;47.666;9.160;2022-08-19T13:37:49;96851.94;;;18.22;100.00
13594;BME280;6449;47.666;9.160;2022-08-19T13:42:47;96855.44;;;18.23;100.00
13594;BME280;6449;47.666;9.160;2022-08-19T13:47:41;96858.25;;;18.38;100.00
13594;BME280;6449;47.666;9.160;2022-08-19T13:52:36;96863.06;;;18.34;100.00
13594;BME280;6449;47.666;9.160;2022-08-19T13:57:30;96858.91;;;18.31;100.00
13594;BME280;6449;47.666;9.160;2022-08-19T14:02:24;96863.56;;;18.38;100.00
13594;BME280;6449;47.666;9.160;2022-08-19T14:07:19;96863.22;;;18.32;100.00
13594;BME280;6449;47.666;9.160;2022-08-19T14:12:19;96875.66;;;18.32;100.00
13594;BME280;6449;47.666;9.160;2022-08-19T14:17:21;96870.88;;;18.27;100.00
13594;BME280;6449;47.666;9.160;2022-08-19T14:22:15;96869.03;;;18.28;100.00
13594;BME280;6449;47.666;9.160;2022-08-19T14:27:13;96870.69;;;18.29;100.00
13594;BME280;6449;47.666;9.160;2022-08-19T14:32:06;96877.00;;;18.28;100.00
13594;BME280;6449;47.666;9.160;2022-08-19T14:37:08;96872.03;;;18.33;100.00
13594;BME280;6449;47.666;9.160;2022-08-19T14:42:07;96876.50;;;18.32;100.00
13594;BME280;6449;47.666;9.160;2022-08-19T14:47:03;96874.69;;;18.33;100.00
13594;BME280;6449;47.666;9.160;2022-08-19T14:52:01;96876.66;;;18.39;100.00
13594;BME280;6449;47.666;9.160;2022-08-19T14:56:56;96882.44;;;18.43;100.00
13594;BME280;6449;47.666;9.160;2022-08-19T15:01:50;96880.47;;;18.45;100.00
13594;BME280;6449;47.666;9.160;2022-08-19T15:06:43;96875.34;;;18.43;100.00
13594;BME280;6449;47.666;9.160;2022-08-19T15:11:37;96883.13;;;18.53;100.00
13594;BME280;6449;47.666;9.160;2022-08-19T15:16:32;96884.13;;;18.52;100.00
13594;BME280;6449;47.666;9.160;2022-08-19T15:21:27;96890.75;;;18.56;100.00
13594;BME280;6449;47.666;9.160;2022-08-19T15:26:21;96890.94;;;18.46;100.00
13594;BME280;6449;47.666;9.160;2022-08-19T15:31:18;96895.41;;;18.46;100.00
13594;BME280;6449;47.666;9.160;2022-08-19T15:36:20;96892.09;;;18.44;100.00
13594;BME280;6449;47.666;9.160;2022-08-19T15:41:19;96896.25;;;18.38;100.00
13594;BME280;6449;47.666;9.160;2022-08-19T15:46:18;96893.59;;;18.38;100.00
13594;BME280;6449;47.666;9.160;2022-08-19T15:51:12;96894.91;;;18.34;100.00
13594;BME280;6449;47.666;9.160;2022-08-19T15:56:08;96891.41;;;18.42;100.00
13594;BME280;6449;47.666;9.160;2022-08-19T16:01:05;96893.09;;;18.51;100.00
13594;BME280;6449;47.666;9.160;2022-08-19T16:06:18;96888.28;;;18.54;100.00
13594;BME280;6449;47.666;9.160;2022-08-19T16:11:25;96890.94;;;18.54;100.00
13594;BME280;6449;47.666;9.160;2022-08-19T16:16:23;96885.47;;;18.56;100.00
13594;BME280;6449;47.666;9.160;2022-08-19T16:21:26;96888.63;;;18.59;100.00
13594;BME280;6449;47.666;9.160;2022-08-19T16:26:24;96898.72;;;18.48;100.00
13594;BME280;6449;47.666;9.160;2022-08-19T16:31:24;96899.25;;;18.59;100.00
13594;BME280;6449;47.666;9.160;2022-08-19T16:36:18;96902.22;;;18.65;100.00
13594;BME280;6449;47.666;9.160;2022-08-19T16:41:12;96900.38;;;18.57;100.00
13594;BME280;6449;47.666;9.160;2022-08-19T16:46:08;96910.00;;;18.58;100.00
13594;BME280;6449;47.666;9.160;2022-08-19T16:51:02;96906.38;;;18.51;100.00
13594;BME280;6449;47.666;9.160;2022-08-19T16:55:59;96904.72;;;18.50;100.00
13594;BME280;6449;47.666;9.160;2022-08-19T17:00:53;96903.72;;;18.59;100.00
13594;BME280;6449;47.666;9.160;2022-08-19T17:05:55;96927.28;;;18.54;100.00
13594;BME280;6449;47.666;9.160;2022-08-19T17:10:49;96939.53;;;18.47;100.00
13594;BME280;6449;47.666;9.160;2022-08-19T17:16:04;96944.53;;;18.50;100.00
13594;BME280;6449;47.666;9.160;2022-08-19T17:21:00;96936.22;;;18.37;100.00
13594;BME280;6449;47.666;9.160;2022-08-19T17:25:54;96941.38;;;18.46;100.00
13594;BME280;6449;47.666;9.160;2022-08-19T17:30:48;96938.22;;;18.35;100.00
13594;BME280;6449;47.666;9.160;2022-08-19T17:35:44;96948.66;;;18.28;100.00
13594;BME280;6449;47.666;9.160;2022-08-19T17:40:49;96937.69;;;18.31;100.00
13594;BME280;6449;47.666;9.160;2022-08-19T17:45:43;96951.16;;;18.38;100.00
13594;BME280;6449;47.666;9.160;2022-08-19T17:50:37;96957.78;;;18.42;100.00
13594;BME280;6449;47.666;9.160;2022-08-19T17:55:37;96948.66;;;18.28;100.00
13594;BME280;6449;47.666;9.160;2022-08-19T18:00:33;96946.47;;;18.31;100.00
13594;BME280;6449;47.666;9.160;2022-08-19T18:05:31;96951.41;;;18.02;100.00
13594;BME280;6449;47.666;9.160;2022-08-19T18:10:27;96932.50;;;18.05;100.00
13594;BME280;6449;47.666;9.160;2022-08-19T18:15:27;96953.41;;;18.08;100.00
13594;BME280;6449;47.666;9.160;2022-08-19T18:20:22;96952.06;;;17.96;100.00
13594;BME280;6449;47.666;9.160;2022-08-19T18:25:20;96946.09;;;18.02;100.00
13594;BME280;6449;47.666;9.160;2022-08-19T18:30:15;96938.16;;;18.02;100.00
13594;BME280;6449;47.666;9.160;2022-08-19T18:35:12;96951.59;;;18.09;100.00
13594;BME280;6449;47.666;9.160;2022-08-19T18:40:14;96953.72;;;18.05;100.00
13594;BME280;6449;47.666;9.160;2022-08-19T18:45:25;96952.72;;;17.98;100.00
13594;BME280;6449;47.666;9.160;2022-08-19T18:50:36;96965.81;;;17.91;100.00
13594;BME280;6449;47.666;9.160;2022-08-19T18:55:34;96969.81;;;17.95;100.00
13594;BME280;6449;47.666;9.160;2022-08-19T19:00:28;96982.25;;;18.03;100.00
13594;BME280;6449;47.666;9.160;2022-08-19T19:05:23;96983.31;;;17.84;100.00
13594;BME280;6449;47.666;9.160;2022-08-19T19:10:18;96986.53;;;17.96;100.00
13594;BME280;6449;47.666;9.160;2022-08-19T19:15:13;96991.44;;;17.83;100.00
13594;BME280;6449;47.666;9.160;2022-08-19T19:20:08;96980.50;;;17.77;100.00
13594;BME280;6449;47.666;9.160;2022-08-19T19:25:05;96988.50;;;17.94;100.00
13594;BME280;6449;47.666;9.160;2022-08-19T19:29:59;97001.78;;;17.94;100.00
13594;BME280;6449;47.666;9.160;2022-08-19T19:35:08;96998.13;;;17.95;100.00
13594;BME280;6449;47.666;9.160;2022-08-19T19:40:07;96996.31;;;17.95;100.00
13594;BME280;6449;47.666;9.160;2022-08-19T19:45:08;97010.06;;;17.91;100.00
13594;BME280;6449;47.666;9.160;2022-08-19T19:50:07;97011.38;;;17.95;100.00
13594;BME280;6449;47.666;9.160;2022-08-19T19:55:15;97001.94;;;17.92;100.00
13594;BME280;6449;47.666;9.160;2022-08-19T20:00:20;97007.06;;;17.86;100.00
13594;BME280;6449;47.666;9.160;2022-08-19T20:05:27;97013.72;;;17.90;100.00
13594;BME280;6449;47.666;9.160;2022-08-19T20:10:23;97030.88;;;17.77;100.00
13594;BME280;6449;47.666;9.160;2022-08-19T20:15:21;97044.13;;;17.77;100.00
13594;BME280;6449;47.666;9.160;2022-08-19T20:20:19;97029.75;;;17.80;100.00
13594;BME280;6449;47.666;9.160;2022-08-19T20:25:17;97025.00;;;18.00;100.00
13594;BME280;6449;47.666;9.160;2022-08-19T20:30:22;97040.56;;;17.95;100.00
13594;BME280;6449;47.666;9.160;2022-08-19T20:35:36;97036.25;;;17.94;100.00
13594;BME280;6449;47.666;9.160;2022-08-19T20:40:30;97039.19;;;17.83;100.00
13594;BME280;6449;47.666;9.160;2022-08-19T20:45:29;97036.41;;;17.92;100.00
13594;BME280;6449;47.666;9.160;2022-08-19T20:50:25;97036.78;;;17.97;100.00
13594;BME280;6449;47.666;9.160;2022-08-19T20:55:23;97037.78;;;17.96;100.00
13594;BME280;6449;47.666;9.160;2022-08-19T21:00:17;97036.59;;;17.91;100.00
13594;BME280;6449;47.666;9.160;2022-08-19T21:05:10;97049.16;;;17.89;100.00
13594;BME280;6449;47.666;9.160;2022-08-19T21:10:06;97049.97;;;17.81;100.00
13594;BME280;6449;47.666;9.160;2022-08-19T21:15:02;97052.03;;;17.95;100.00
13594;BME280;6449;47.666;9.160;2022-08-19T21:19:55;97048.41;;;18.04;100.00
13594;BME280;6449;47.666;9.160;2022-08-19T21:24:49;97052.50;;;17.91;100.00
13594;BME280;6449;47.666;9.160;2022-08-19T21:29:42;97047.03;;;17.92;100.00
13594;BME280;6449;47.666;9.160;2022-08-19T21:34:38;97056.28;;;17.88;100.00
13594;BME280;6449;47.666;9.160;2022-08-19T21:39:34;97076.03;;;17.86;100.00
13594;BME280;6449;47.666;9.160;2022-08-19T21:44:28;97065.06;;;17.89;100.00
13594;BME280;6449;47.666;9.160;2022-08-19T21:49:21;97064.94;;;17.90;100.00
13594;BME280;6449;47.666;9.160;2022-08-19T21:54:16;97073.44;;;18.02;100.00
13594;BME280;6449;47.666;9.160;2022-08-19T21:59:09;97076.03;;;17.94;100.00
13594;BME280;6449;47.666;9.160;2022-08-19T22:04:03;97082.34;;;17.93;100.00
13594;BME280;6449;47.666;9.160;2022-08-19T22:08:57;97094.72;;;17.84;100.00
13594;BME280;6449;47.666;9.160;2022-08-19T22:13:52;97091.75;;;17.79;100.00
13594;BME280;6449;47.666;9.160;2022-08-19T22:18:47;97082.56;;;17.73;100.00
13594;BME280;6449;47.666;9.160;2022-08-19T22:23:41;97093.41;;;17.80;100.00
13594;BME280;6449;47.666;9.160;2022-08-19T22:28:36;97090.56;;;17.82;100.00
13594;BME280;6449;47.666;9.160;2022-08-19T22:33:32;97087.28;;;17.88;100.00
13594;BME280;6449;47.666;9.160;2022-08-19T22:38:27;97093.75;;;17.85;100.00
13594;BME280;6449;47.666;9.160;2022-08-19T22:43:23;97087.41;;;17.78;100.00
13594;BME280;6449;47.666;9.160;2022-08-19T22:48:20;97088.78;;;17.64;100.00
13594;BME280;6449;47.666;9.160;2022-08-19T22:53:15;97082.63;;;17.82;100.00
13594;BME280;6449;47.666;9.160;2022-08-19T22:58:09;97076.50;;;17.89;100.00
13594;BME280;6449;47.666;9.160;2022-08-19T23:03:02;97077.38;;;17.90;100.00
13594;BME280;6449;47.666;9.160;2022-08-19T23:07:56;97084.63;;;17.88;100.00
13594;BME280;6449;47.666;9.160;2022-08-19T23:12:51;97079.66;;;17.85;100.00
13594;BME280;6449;47.666;9.160;2022-08-19T23:17:45;97076.84;;;17.86;100.00
13594;BME280;6449;47.666;9.160;2022-08-19T23:22:39;97072.88;;;17.64;100.00
13594;BME280;6449;47.666;9.160;2022-08-19T23:27:33;97066.94;;;17.70;100.00
13594;BME280;6449;47.666;9.160;2022-08-19T23:33:12;97072.25;;;17.70;100.00
13594;BME280;6449;47.666;9.160;2022-08-19T23:38:06;97070.06;;;17.66;100.00
13594;BME280;6449;47.666;9.160;2022-08-19T23:43:00;97067.78;;;17.71;100.00
13594;BME280;6449;47.666;9.160;2022-08-19T23:48:00;97073.53;;;17.66;100.00
13594;BME280;6449;47.666;9.160;2022-08-19T23:52:59;97070.28;;;17.72;100.00
13594;BME280;6449;47.666;9.160;2022-08-19T23:57:53;97061.81;;;17.69;100.00
